createdAt,value
2022-12-27T09:28:27.645Z,5.65
2022-12-27T09:30:54.241Z,5.73
2022-12-27T09:33:20.767Z,6.05
2022-12-27T09:35:47.220Z,5.90
2022-12-27T09:38:13.783Z,6.00
2022-12-27T09:40:40.280Z,6.16
2022-12-27T09:43:19.563Z,6.40
2022-12-27T09:45:50.178Z,6.33
2022-12-27T09:48:32.983Z,6.36
2022-12-27T09:51:06.459Z,6.19
2022-12-27T09:53:51.135Z,6.21
2022-12-27T09:56:47.408Z,5.93
2022-12-27T09:59:18.415Z,6.27
2022-12-27T10:01:47.716Z,6.49
2022-12-27T10:04:18.934Z,6.53
2022-12-27T10:06:55.177Z,6.23
2022-12-27T10:09:45.204Z,6.15
2022-12-27T10:12:14.630Z,6.33
2022-12-27T10:14:47.327Z,6.13
2022-12-27T10:17:53.532Z,5.86
2022-12-27T10:20:54.050Z,5.55
2022-12-27T10:23:24.239Z,5.54
2022-12-27T10:26:01.047Z,5.39
2022-12-27T10:28:57.216Z,5.16
2022-12-27T10:31:25.645Z,5.31
2022-12-27T10:33:53.249Z,5.05
2022-12-27T10:36:24.983Z,5.23
2022-12-27T10:38:51.450Z,4.98
2022-12-27T10:41:32.098Z,5.23
2022-12-27T10:43:58.995Z,5.05
2022-12-27T10:46:32.705Z,5.03
2022-12-27T10:49:20.616Z,4.83
2022-12-27T10:51:49.446Z,5.13
2022-12-27T10:54:22.807Z,5.16
2022-12-27T10:56:50.186Z,4.95
2022-12-27T10:59:21.927Z,5.08
2022-12-27T11:02:19.607Z,4.96
2022-12-27T11:04:58.128Z,4.96
2022-12-27T11:07:31.067Z,4.88
2022-12-27T11:10:14.632Z,4.97
2022-12-27T11:13:05.154Z,4.99
2022-12-27T11:15:34.799Z,5.09
2022-12-27T11:18:10.382Z,4.94
2022-12-27T11:20:46.717Z,4.96
2022-12-27T11:23:16.485Z,5.14
2022-12-27T11:25:56.902Z,5.05
2022-12-27T11:28:38.448Z,4.99
2022-12-27T11:31:30.838Z,5.12
2022-12-27T11:34:02.125Z,5.01
2022-12-27T11:36:34.782Z,5.04
2022-12-27T11:39:01.888Z,5.21
2022-12-27T11:41:47.342Z,5.16
2022-12-27T11:44:23.911Z,5.03
2022-12-27T11:47:03.524Z,4.92
2022-12-27T11:49:36.943Z,4.98
2022-12-27T11:52:40.813Z,5.05
2022-12-27T11:55:38.443Z,5.16
2022-12-27T11:58:33.420Z,5.25
2022-12-27T12:01:14.851Z,5.15
2022-12-27T12:03:56.463Z,5.14
2022-12-27T12:06:44.989Z,5.02
2022-12-27T12:09:45.448Z,5.23
2022-12-27T12:12:37.888Z,5.16
2022-12-27T12:15:28.842Z,5.14
2022-12-27T12:18:24.402Z,5.28
2022-12-27T12:20:56.498Z,5.16
2022-12-27T12:24:00.034Z,5.34
2022-12-27T12:26:33.262Z,5.14
2022-12-27T12:29:18.684Z,5.12
2022-12-27T12:32:00.440Z,5.23
2022-12-27T12:34:45.915Z,5.29
2022-12-27T12:37:37.716Z,4.84
2022-12-27T12:40:22.614Z,5.09
2022-12-27T12:43:03.320Z,5.18
2022-12-27T12:46:12.284Z,5.21
2022-12-27T12:48:51.057Z,5.02
2022-12-27T12:51:26.479Z,5.12
2022-12-27T12:54:11.197Z,5.11
2022-12-27T12:57:27.351Z,5.04
2022-12-27T13:00:12.572Z,5.12
2022-12-27T13:03:16.793Z,4.96
2022-12-27T13:05:50.108Z,4.91
2022-12-27T13:08:22.359Z,4.93
2022-12-27T13:11:04.622Z,4.74
2022-12-27T13:13:49.901Z,4.64
2022-12-27T13:16:19.492Z,4.73
2022-12-27T13:19:13.825Z,4.68
2022-12-27T13:22:02.503Z,4.61
2022-12-27T13:24:52.175Z,4.88
2022-12-27T13:27:53.801Z,4.86
2022-12-27T13:30:29.835Z,4.84
2022-12-27T13:33:17.590Z,4.90
2022-12-27T13:36:15.289Z,4.95
2022-12-27T13:39:21.886Z,4.64
2022-12-27T13:42:17.190Z,4.81
2022-12-27T13:45:21.409Z,4.77
2022-12-27T13:48:15.287Z,4.42
2022-12-27T13:51:02.532Z,4.55
2022-12-27T13:53:40.981Z,4.43
2022-12-27T13:56:52.781Z,4.42
2022-12-27T13:59:18.178Z,4.41
2022-12-27T14:02:03.127Z,4.26
2022-12-27T14:04:48.026Z,4.10
2022-12-27T14:07:29.906Z,3.98
2022-12-27T14:10:17.478Z,4.01
2022-12-27T14:12:52.931Z,3.91
2022-12-27T14:15:23.872Z,3.86
2022-12-27T14:18:14.585Z,3.75
2022-12-27T14:21:26.528Z,3.66
2022-12-27T14:23:58.855Z,3.52
2022-12-27T14:27:03.417Z,3.46
2022-12-27T14:30:05.005Z,3.35
2022-12-27T14:33:03.543Z,3.25
2022-12-27T14:35:54.775Z,3.23
2022-12-27T14:38:43.014Z,3.17
2022-12-27T14:41:46.180Z,3.08
2022-12-27T14:44:28.252Z,3.01
2022-12-27T14:47:03.304Z,2.94
2022-12-27T14:49:32.683Z,2.83
2022-12-27T14:52:38.690Z,2.72
2022-12-27T14:55:30.285Z,2.62
2022-12-27T14:58:31.738Z,2.49
2022-12-27T15:01:19.807Z,2.34
2022-12-27T15:04:01.277Z,2.23
2022-12-27T15:07:05.137Z,2.10
2022-12-27T15:09:44.852Z,1.88
2022-12-27T15:12:19.366Z,1.84
2022-12-27T15:15:12.006Z,1.83
2022-12-27T15:18:12.101Z,1.75
2022-12-27T15:20:52.072Z,1.65
2022-12-27T15:23:54.080Z,1.62
2022-12-27T15:26:45.711Z,1.52
2022-12-27T15:29:26.479Z,1.45
2022-12-27T15:32:20.676Z,1.35
2022-12-27T15:34:54.991Z,1.25
2022-12-27T15:38:04.212Z,1.20
2022-12-27T15:40:33.722Z,1.17
2022-12-27T15:43:09.345Z,1.13
2022-12-27T15:46:05.921Z,1.02
2022-12-27T15:48:40.312Z,0.90
2022-12-27T15:51:54.817Z,0.84
2022-12-27T15:54:35.555Z,0.71
2022-12-27T15:57:23.670Z,0.62
2022-12-27T16:00:05.413Z,0.74
2022-12-27T16:02:33.779Z,0.67
2022-12-27T16:05:00.435Z,0.60
2022-12-27T16:07:40.065Z,0.53
2022-12-27T16:10:45.833Z,0.55
2022-12-27T16:13:42.915Z,0.46
2022-12-27T16:16:30.312Z,0.43
2022-12-27T16:19:15.564Z,0.39
2022-12-27T16:21:45.717Z,0.31
2022-12-27T16:24:23.717Z,0.25
2022-12-27T16:27:17.951Z,0.19
2022-12-27T16:29:44.752Z,0.09
2022-12-27T16:32:25.014Z,0.15
2022-12-27T16:34:55.568Z,0.11
2022-12-27T16:37:29.259Z,0.06
2022-12-27T16:40:12.116Z,0.08
2022-12-27T16:42:57.189Z,0.04
2022-12-27T16:45:32.439Z,-0.02
2022-12-27T16:48:12.021Z,-0.16
2022-12-27T16:50:43.981Z,-0.10
2022-12-27T16:53:22.656Z,-0.16
2022-12-27T16:56:08.418Z,-0.17
2022-12-27T16:58:37.636Z,-0.29
2022-12-27T17:01:06.933Z,-0.19
2022-12-27T17:03:36.596Z,-0.23
2022-12-27T17:06:38.269Z,-0.28
2022-12-27T17:09:10.726Z,-0.28
2022-12-27T17:11:52.535Z,-0.29
2022-12-27T17:14:31.520Z,-0.34
2022-12-27T17:17:07.322Z,-0.47
2022-12-27T17:19:40.457Z,-0.41
2022-12-27T17:22:12.129Z,-0.45
2022-12-27T17:24:38.638Z,-0.60
2022-12-27T17:27:31.285Z,-0.54
2022-12-27T17:30:20.479Z,-0.63
2022-12-27T17:32:52.792Z,-0.55
2022-12-27T17:35:20.550Z,-0.59
2022-12-27T17:38:20.559Z,-0.60
2022-12-27T17:41:10.337Z,-0.65
2022-12-27T17:44:06.455Z,-0.64
2022-12-27T17:47:15.361Z,-0.67
2022-12-27T17:49:43.226Z,-0.70
2022-12-27T17:52:35.623Z,-0.72
2022-12-27T17:55:43.638Z,-0.73
2022-12-27T17:58:13.244Z,-0.76
2022-12-27T18:00:54.527Z,-0.81
2022-12-27T18:03:22.782Z,-0.77
2022-12-27T18:05:49.858Z,-0.79
2022-12-27T18:08:29.029Z,-0.85
2022-12-27T18:10:57.298Z,-0.85
2022-12-27T18:13:27.483Z,-0.90
2022-12-27T18:15:54.809Z,-0.85
2022-12-27T18:18:28.089Z,-0.92
2022-12-27T18:20:59.959Z,-0.80
2022-12-27T18:23:27.293Z,-0.78
2022-12-27T18:26:13.188Z,-0.89
2022-12-27T18:28:40.956Z,-0.80
2022-12-27T18:31:28.651Z,-0.81
2022-12-27T18:34:03.373Z,-0.79
2022-12-27T18:36:31.149Z,-0.75
2022-12-27T18:39:00.931Z,-0.97
2022-12-27T18:41:33.883Z,-0.84
2022-12-27T18:44:01.488Z,-0.86
2022-12-27T18:46:36.435Z,-0.85
2022-12-27T18:49:04.144Z,-0.81
2022-12-27T18:51:33.032Z,-0.77
2022-12-27T18:54:00.558Z,-0.70
2022-12-27T18:56:32.480Z,-0.66
2022-12-27T18:59:17.447Z,-0.68
2022-12-27T19:01:46.010Z,-0.68
2022-12-27T19:04:15.341Z,-0.74
2022-12-27T19:06:47.917Z,-0.80
2022-12-27T19:09:17.823Z,-0.79
2022-12-27T19:12:03.012Z,-0.69
2022-12-27T19:14:37.823Z,-0.71
2022-12-27T19:17:10.791Z,-0.84
2022-12-27T19:19:37.676Z,-0.79
2022-12-27T19:22:31.930Z,-0.79
2022-12-27T19:25:02.448Z,-0.80
2022-12-27T19:27:28.923Z,-0.82
2022-12-27T19:29:55.466Z,-0.79
2022-12-27T19:32:30.352Z,-0.84
2022-12-27T19:35:00.375Z,-0.75
2022-12-27T19:37:29.183Z,-0.90
2022-12-27T19:39:57.120Z,-0.77
2022-12-27T19:42:34.859Z,-0.76
2022-12-27T19:45:02.107Z,-0.76
2022-12-27T19:47:28.596Z,-0.88
2022-12-27T19:49:55.136Z,-0.80
2022-12-27T19:52:25.888Z,-1.01
2022-12-27T19:55:00.215Z,-0.83
2022-12-27T19:57:26.658Z,-0.85
2022-12-27T19:59:53.139Z,-0.97
2022-12-27T20:02:21.391Z,-0.93
2022-12-27T20:04:47.938Z,-0.95
2022-12-27T20:07:21.021Z,-0.93
2022-12-27T20:09:47.614Z,-0.91
2022-12-27T20:12:15.921Z,-1.08
2022-12-27T20:14:42.384Z,-1.02
2022-12-27T20:17:08.839Z,-1.08
2022-12-27T20:19:35.858Z,-1.08
2022-12-27T20:22:02.322Z,-1.11
2022-12-27T20:24:30.632Z,-1.21
2022-12-27T20:26:57.191Z,-1.28
2022-12-27T20:29:24.015Z,-1.18
2022-12-27T20:31:52.191Z,-1.21
2022-12-27T20:34:18.711Z,-1.29
2022-12-27T20:36:45.227Z,-1.36
2022-12-27T20:39:11.718Z,-1.38
2022-12-27T20:41:38.456Z,-1.43
2022-12-27T20:44:05.321Z,-1.53
2022-12-27T20:46:31.828Z,-1.55
2022-12-27T20:48:58.249Z,-1.46
2022-12-27T20:51:37.994Z,-1.44
2022-12-27T20:54:04.641Z,-1.45
2022-12-27T20:56:31.462Z,-1.51
2022-12-27T20:58:57.974Z,-1.62
2022-12-27T21:01:26.067Z,-1.59
2022-12-27T21:03:54.292Z,-1.61
2022-12-27T21:06:23.308Z,-1.62
2022-12-27T21:08:56.861Z,-1.68
2022-12-27T21:11:27.756Z,-1.68
2022-12-27T21:13:55.293Z,-1.71
2022-12-27T21:16:26.271Z,-1.76
2022-12-27T21:18:53.556Z,-1.76
2022-12-27T21:21:26.757Z,-1.82
2022-12-27T21:23:54.769Z,-1.84
2022-12-27T21:26:24.846Z,-1.89
2022-12-27T21:28:51.883Z,-1.96
2022-12-27T21:31:19.071Z,-1.90
2022-12-27T21:33:45.814Z,-1.91
2022-12-27T21:36:14.735Z,-1.94
2022-12-27T21:38:41.351Z,-1.90
2022-12-27T21:41:12.655Z,-1.92
2022-12-27T21:43:39.244Z,-1.91
2022-12-27T21:46:11.081Z,-1.93
2022-12-27T21:48:40.286Z,-1.96
2022-12-27T21:51:09.228Z,-2.07
2022-12-27T21:53:36.323Z,-2.03
2022-12-27T21:56:03.096Z,-2.14
2022-12-27T21:58:34.219Z,-2.11
2022-12-27T22:01:13.934Z,-2.13
2022-12-27T22:03:42.730Z,-2.16
2022-12-27T22:06:15.925Z,-2.18
2022-12-27T22:08:43.535Z,-2.21
2022-12-27T22:11:10.246Z,-2.23
2022-12-27T22:13:37.364Z,-2.31
2022-12-27T22:16:06.932Z,-2.27
2022-12-27T22:18:39.796Z,-2.38
2022-12-27T22:21:07.746Z,-2.35
2022-12-27T22:23:37.087Z,-2.37
2022-12-27T22:26:04.624Z,-2.42
2022-12-27T22:28:31.117Z,-2.38
